sensor_id;sensor_type;location;lat;lon;timestamp;P1;durP1;ratioP1;P2;durP2;ratioP2
75012;SDS011;63567;49.956;20.130;2023-04-25T00:01:13;10.50;;;6.97;;
75012;SDS011;63567;49.956;20.130;2023-04-25T00:03:39;10.52;;;6.93;;
75012;SDS011;63567;49.956;20.130;2023-04-25T00:06:05;10.90;;;7.60;;
75012;SDS011;63567;49.956;20.130;2023-04-25T00:08:31;8.65;;;6.22;;
75012;SDS011;63567;49.956;20.130;2023-04-25T00:10:57;10.20;;;6.35;;
75012;SDS011;63567;49.956;20.130;2023-04-25T00:13:23;8.60;;;6.00;;
75012;SDS011;63567;49.956;20.130;2023-04-25T00:15:50;9.07;;;5.60;;
75012;SDS011;63567;49.956;20.130;2023-04-25T00:18:16;8.70;;;6.07;;
75012;SDS011;63567;49.956;20.130;2023-04-25T00:20:42;7.57;;;5.35;;
75012;SDS011;63567;49.956;20.130;2023-04-25T00:23:11;9.02;;;5.97;;
75012;SDS011;63567;49.956;20.130;2023-04-25T00:25:43;8.70;;;5.85;;
75012;SDS011;63567;49.956;20.130;2023-04-25T00:28:09;9.65;;;6.63;;
75012;SDS011;63567;49.956;20.130;2023-04-25T00:30:35;9.40;;;6.65;;
75012;SDS011;63567;49.956;20.130;2023-04-25T00:33:00;9.30;;;5.90;;
75012;SDS011;63567;49.956;20.130;2023-04-25T00:35:26;8.37;;;6.20;;
75012;SDS011;63567;49.956;20.130;2023-04-25T00:37:51;8.38;;;5.50;;
75012;SDS011;63567;49.956;20.130;2023-04-25T00:40:17;6.67;;;3.90;;
75012;SDS011;63567;49.956;20.130;2023-04-25T00:42:42;5.57;;;3.37;;
75012;SDS011;63567;49.956;20.130;2023-04-25T00:45:09;4.95;;;2.63;;
75012;SDS011;63567;49.956;20.130;2023-04-25T00:47:39;3.85;;;2.25;;
75012;SDS011;63567;49.956;20.130;2023-04-25T00:50:05;3.67;;;2.03;;
75012;SDS011;63567;49.956;20.130;2023-04-25T00:52:31;3.13;;;2.05;;
75012;SDS011;63567;49.956;20.130;2023-04-25T00:54:57;3.17;;;1.75;;
75012;SDS011;63567;49.956;20.130;2023-04-25T00:57:23;3.75;;;1.58;;
75012;SDS011;63567;49.956;20.130;2023-04-25T00:59:48;2.55;;;1.40;;
75012;SDS011;63567;49.956;20.130;2023-04-25T01:02:17;2.63;;;1.45;;
75012;SDS011;63567;49.956;20.130;2023-04-25T01:04:42;3.20;;;1.50;;
75012;SDS011;63567;49.956;20.130;2023-04-25T01:07:08;2.05;;;1.30;;
75012;SDS011;63567;49.956;20.130;2023-04-25T01:09:34;2.15;;;1.23;;
75012;SDS011;63567;49.956;20.130;2023-04-25T01:12:00;2.53;;;1.13;;
75012;SDS011;63567;49.956;20.130;2023-04-25T01:14:26;2.15;;;1.30;;
75012;SDS011;63567;49.956;20.130;2023-04-25T01:16:52;2.72;;;1.58;;
75012;SDS011;63567;49.956;20.130;2023-04-25T01:19:20;2.25;;;1.27;;
75012;SDS011;63567;49.956;20.130;2023-04-25T01:21:45;2.88;;;1.33;;
75012;SDS011;63567;49.956;20.130;2023-04-25T01:24:11;2.13;;;1.20;;
75012;SDS011;63567;49.956;20.130;2023-04-25T01:26:37;2.80;;;1.20;;
75012;SDS011;63567;49.956;20.130;2023-04-25T01:29:04;2.50;;;1.38;;
75012;SDS011;63567;49.956;20.130;2023-04-25T01:31:31;2.35;;;1.10;;
75012;SDS011;63567;49.956;20.130;2023-04-25T01:33:58;2.63;;;1.40;;
75012;SDS011;63567;49.956;20.130;2023-04-25T01:36:24;3.03;;;1.65;;
75012;SDS011;63567;49.956;20.130;2023-04-25T01:38:50;2.92;;;1.70;;
75012;SDS011;63567;49.956;20.130;2023-04-25T01:41:15;4.45;;;1.70;;
75012;SDS011;63567;49.956;20.130;2023-04-25T01:43:42;2.78;;;1.75;;
75012;SDS011;63567;49.956;20.130;2023-04-25T01:46:08;3.55;;;2.08;;
75012;SDS011;63567;49.956;20.130;2023-04-25T01:48:34;3.83;;;2.08;;
75012;SDS011;63567;49.956;20.130;2023-04-25T01:50:59;3.58;;;2.28;;
75012;SDS011;63567;49.956;20.130;2023-04-25T01:53:25;2.92;;;2.00;;
75012;SDS011;63567;49.956;20.130;2023-04-25T01:55:51;4.60;;;2.10;;
75012;SDS011;63567;49.956;20.130;2023-04-25T01:58:16;3.17;;;1.83;;
75012;SDS011;63567;49.956;20.130;2023-04-25T02:00:41;3.73;;;2.47;;
75012;SDS011;63567;49.956;20.130;2023-04-25T02:03:07;3.20;;;2.30;;
75012;SDS011;63567;49.956;20.130;2023-04-25T02:05:36;4.60;;;2.47;;
75012;SDS011;63567;49.956;20.130;2023-04-25T02:08:04;3.60;;;2.28;;
75012;SDS011;63567;49.956;20.130;2023-04-25T02:10:30;3.33;;;2.30;;
75012;SDS011;63567;49.956;20.130;2023-04-25T02:12:56;4.72;;;2.60;;
75012;SDS011;63567;49.956;20.130;2023-04-25T02:15:22;4.35;;;2.80;;
75012;SDS011;63567;49.956;20.130;2023-04-25T02:17:47;4.40;;;2.80;;
75012;SDS011;63567;49.956;20.130;2023-04-25T02:20:13;5.30;;;3.00;;
75012;SDS011;63567;49.956;20.130;2023-04-25T02:22:40;4.45;;;2.88;;
75012;SDS011;63567;49.956;20.130;2023-04-25T02:25:07;5.18;;;3.03;;
75012;SDS011;63567;49.956;20.130;2023-04-25T02:27:34;4.38;;;2.80;;
75012;SDS011;63567;49.956;20.130;2023-04-25T02:29:59;5.50;;;3.00;;
75012;SDS011;63567;49.956;20.130;2023-04-25T02:32:25;5.50;;;3.65;;
75012;SDS011;63567;49.956;20.130;2023-04-25T02:34:50;5.47;;;3.33;;
75012;SDS011;63567;49.956;20.130;2023-04-25T02:37:16;5.00;;;3.20;;
75012;SDS011;63567;49.956;20.130;2023-04-25T02:39:41;4.47;;;3.25;;
75012;SDS011;63567;49.956;20.130;2023-04-25T02:42:06;4.63;;;3.13;;
75012;SDS011;63567;49.956;20.130;2023-04-25T02:44:32;5.33;;;3.10;;
75012;SDS011;63567;49.956;20.130;2023-04-25T02:46:57;5.33;;;2.73;;
75012;SDS011;63567;49.956;20.130;2023-04-25T02:49:22;3.80;;;2.40;;
75012;SDS011;63567;49.956;20.130;2023-04-25T02:51:48;4.78;;;3.10;;
75012;SDS011;63567;49.956;20.130;2023-04-25T02:54:13;4.30;;;2.80;;
75012;SDS011;63567;49.956;20.130;2023-04-25T02:56:38;4.90;;;2.93;;
75012;SDS011;63567;49.956;20.130;2023-04-25T02:59:04;4.63;;;3.30;;
75012;SDS011;63567;49.956;20.130;2023-04-25T03:01:29;5.22;;;3.10;;
75012;SDS011;63567;49.956;20.130;2023-04-25T03:03:55;6.53;;;3.60;;
75012;SDS011;63567;49.956;20.130;2023-04-25T03:06:20;4.90;;;3.63;;
75012;SDS011;63567;49.956;20.130;2023-04-25T03:08:45;5.55;;;3.42;;
75012;SDS011;63567;49.956;20.130;2023-04-25T03:11:11;4.40;;;3.05;;
75012;SDS011;63567;49.956;20.130;2023-04-25T03:13:36;4.40;;;3.30;;
75012;SDS011;63567;49.956;20.130;2023-04-25T03:16:01;5.20;;;2.90;;
75012;SDS011;63567;49.956;20.130;2023-04-25T03:18:27;4.57;;;3.03;;
75012;SDS011;63567;49.956;20.130;2023-04-25T03:20:52;4.97;;;3.37;;
75012;SDS011;63567;49.956;20.130;2023-04-25T03:23:18;4.60;;;3.10;;
75012;SDS011;63567;49.956;20.130;2023-04-25T03:25:43;4.33;;;3.13;;
75012;SDS011;63567;49.956;20.130;2023-04-25T03:28:08;5.23;;;3.17;;
75012;SDS011;63567;49.956;20.130;2023-04-25T03:30:34;4.40;;;2.85;;
75012;SDS011;63567;49.956;20.130;2023-04-25T03:32:59;4.88;;;2.78;;
75012;SDS011;63567;49.956;20.130;2023-04-25T03:35:24;4.13;;;2.70;;
75012;SDS011;63567;49.956;20.130;2023-04-25T03:37:50;4.85;;;3.05;;
75012;SDS011;63567;49.956;20.130;2023-04-25T03:40:15;4.87;;;3.10;;
75012;SDS011;63567;49.956;20.130;2023-04-25T03:42:40;5.18;;;3.15;;
75012;SDS011;63567;49.956;20.130;2023-04-25T03:45:06;5.00;;;2.95;;
75012;SDS011;63567;49.956;20.130;2023-04-25T03:47:32;4.78;;;3.10;;
75012;SDS011;63567;49.956;20.130;2023-04-25T03:49:57;5.80;;;3.60;;
75012;SDS011;63567;49.956;20.130;2023-04-25T03:52:23;5.32;;;3.38;;
75012;SDS011;63567;49.956;20.130;2023-04-25T03:54:48;4.90;;;3.50;;
75012;SDS011;63567;49.956;20.130;2023-04-25T03:57:13;5.60;;;3.70;;
75012;SDS011;63567;49.956;20.130;2023-04-25T03:59:39;7.18;;;4.18;;
75012;SDS011;63567;49.956;20.130;2023-04-25T04:02:04;6.63;;;4.30;;
75012;SDS011;63567;49.956;20.130;2023-04-25T04:04:30;6.50;;;4.40;;
75012;SDS011;63567;49.956;20.130;2023-04-25T04:06:55;7.70;;;4.72;;
75012;SDS011;63567;49.956;20.130;2023-04-25T04:09:21;8.63;;;5.40;;
75012;SDS011;63567;49.956;20.130;2023-04-25T04:11:47;7.15;;;4.93;;
75012;SDS011;63567;49.956;20.130;2023-04-25T04:14:12;7.05;;;4.95;;
75012;SDS011;63567;49.956;20.130;2023-04-25T04:16:37;8.32;;;5.70;;
75012;SDS011;63567;49.956;20.130;2023-04-25T04:19:03;9.32;;;5.40;;
75012;SDS011;63567;49.956;20.130;2023-04-25T04:21:28;9.80;;;6.03;;
75012;SDS011;63567;49.956;20.130;2023-04-25T04:23:54;9.90;;;5.93;;
75012;SDS011;63567;49.956;20.130;2023-04-25T04:26:19;9.45;;;5.78;;
75012;SDS011;63567;49.956;20.130;2023-04-25T04:28:48;9.85;;;6.28;;
75012;SDS011;63567;49.956;20.130;2023-04-25T04:31:15;10.20;;;6.07;;
75012;SDS011;63567;49.956;20.130;2023-04-25T04:33:40;9.37;;;5.80;;
75012;SDS011;63567;49.956;20.130;2023-04-25T04:36:06;8.70;;;5.97;;
75012;SDS011;63567;49.956;20.130;2023-04-25T04:38:32;8.45;;;5.97;;
75012;SDS011;63567;49.956;20.130;2023-04-25T04:40:58;8.98;;;5.72;;
75012;SDS011;63567;49.956;20.130;2023-04-25T04:43:23;8.50;;;5.40;;
75012;SDS011;63567;49.956;20.130;2023-04-25T04:45:49;8.57;;;5.63;;
75012;SDS011;63567;49.956;20.130;2023-04-25T04:48:15;9.82;;;6.00;;
75012;SDS011;63567;49.956;20.130;2023-04-25T04:50:42;8.75;;;5.50;;
75012;SDS011;63567;49.956;20.130;2023-04-25T04:53:10;9.52;;;6.32;;
75012;SDS011;63567;49.956;20.130;2023-04-25T04:55:36;9.43;;;6.20;;
75012;SDS011;63567;49.956;20.130;2023-04-25T04:58:01;7.93;;;5.50;;
75012;SDS011;63567;49.956;20.130;2023-04-25T05:00:26;8.70;;;6.03;;
75012;SDS011;63567;49.956;20.130;2023-04-25T05:02:52;8.65;;;5.10;;
75012;SDS011;63567;49.956;20.130;2023-04-25T05:05:18;7.27;;;4.50;;
75012;SDS011;63567;49.956;20.130;2023-04-25T05:07:43;9.82;;;5.78;;
75012;SDS011;63567;49.956;20.130;2023-04-25T05:10:08;9.33;;;5.90;;
75012;SDS011;63567;49.956;20.130;2023-04-25T05:12:34;9.05;;;6.25;;
75012;SDS011;63567;49.956;20.130;2023-04-25T05:14:59;10.43;;;7.03;;
75012;SDS011;63567;49.956;20.130;2023-04-25T05:17:25;11.57;;;7.30;;
75012;SDS011;63567;49.956;20.130;2023-04-25T05:19:50;11.25;;;7.43;;
75012;SDS011;63567;49.956;20.130;2023-04-25T05:22:16;11.60;;;7.40;;
75012;SDS011;63567;49.956;20.130;2023-04-25T05:24:41;10.55;;;7.60;;
75012;SDS011;63567;49.956;20.130;2023-04-25T05:27:06;10.85;;;7.53;;
75012;SDS011;63567;49.956;20.130;2023-04-25T05:29:32;11.70;;;7.63;;
75012;SDS011;63567;49.956;20.130;2023-04-25T05:31:57;11.73;;;7.32;;
75012;SDS011;63567;49.956;20.130;2023-04-25T05:34:22;11.50;;;7.67;;
75012;SDS011;63567;49.956;20.130;2023-04-25T05:36:48;11.43;;;7.70;;
75012;SDS011;63567;49.956;20.130;2023-04-25T05:39:15;11.57;;;7.32;;
75012;SDS011;63567;49.956;20.130;2023-04-25T05:41:41;11.10;;;7.25;;
75012;SDS011;63567;49.956;20.130;2023-04-25T05:44:07;12.18;;;7.25;;
75012;SDS011;63567;49.956;20.130;2023-04-25T05:46:32;10.43;;;7.03;;
75012;SDS011;63567;49.956;20.130;2023-04-25T05:48:57;12.37;;;7.50;;
75012;SDS011;63567;49.956;20.130;2023-04-25T05:51:23;11.60;;;7.07;;
75012;SDS011;63567;49.956;20.130;2023-04-25T05:53:48;10.07;;;6.93;;
75012;SDS011;63567;49.956;20.130;2023-04-25T05:56:13;10.93;;;6.10;;
75012;SDS011;63567;49.956;20.130;2023-04-25T05:58:39;10.23;;;6.07;;
75012;SDS011;63567;49.956;20.130;2023-04-25T06:01:05;8.80;;;5.70;;
75012;SDS011;63567;49.956;20.130;2023-04-25T06:03:30;9.43;;;5.97;;
75012;SDS011;63567;49.956;20.130;2023-04-25T06:05:55;8.97;;;5.70;;
75012;SDS011;63567;49.956;20.130;2023-04-25T06:08:21;7.93;;;5.15;;
75012;SDS011;63567;49.956;20.130;2023-04-25T06:10:46;9.93;;;5.05;;
75012;SDS011;63567;49.956;20.130;2023-04-25T06:13:12;7.75;;;5.22;;
75012;SDS011;63567;49.956;20.130;2023-04-25T06:15:37;7.18;;;4.38;;
75012;SDS011;63567;49.956;20.130;2023-04-25T06:18:02;7.93;;;4.80;;
75012;SDS011;63567;49.956;20.130;2023-04-25T06:20:28;7.13;;;4.43;;
75012;SDS011;63567;49.956;20.130;2023-04-25T06:22:54;7.53;;;3.65;;
75012;SDS011;63567;49.956;20.130;2023-04-25T06:25:19;5.90;;;3.67;;
75012;SDS011;63567;49.956;20.130;2023-04-25T06:27:46;7.25;;;3.67;;
75012;SDS011;63567;49.956;20.130;2023-04-25T06:30:11;7.78;;;3.80;;
75012;SDS011;63567;49.956;20.130;2023-04-25T06:32:37;6.63;;;3.15;;
75012;SDS011;63567;49.956;20.130;2023-04-25T06:35:03;5.38;;;2.85;;
75012;SDS011;63567;49.956;20.130;2023-04-25T06:37:29;4.93;;;2.70;;
75012;SDS011;63567;49.956;20.130;2023-04-25T06:39:55;4.90;;;2.88;;
75012;SDS011;63567;49.956;20.130;2023-04-25T06:42:20;6.13;;;2.60;;
75012;SDS011;63567;49.956;20.130;2023-04-25T06:44:46;4.05;;;2.53;;
75012;SDS011;63567;49.956;20.130;2023-04-25T06:47:11;3.77;;;2.20;;
75012;SDS011;63567;49.956;20.130;2023-04-25T06:49:36;5.30;;;2.27;;
75012;SDS011;63567;49.956;20.130;2023-04-25T06:52:02;5.00;;;2.25;;
75012;SDS011;63567;49.956;20.130;2023-04-25T06:54:27;4.68;;;2.42;;
75012;SDS011;63567;49.956;20.130;2023-04-25T06:56:54;5.90;;;2.83;;
75012;SDS011;63567;49.956;20.130;2023-04-25T06:59:20;5.15;;;2.72;;
75012;SDS011;63567;49.956;20.130;2023-04-25T07:01:46;5.22;;;3.22;;
75012;SDS011;63567;49.956;20.130;2023-04-25T07:04:12;4.90;;;2.72;;
75012;SDS011;63567;49.956;20.130;2023-04-25T07:06:38;4.53;;;2.78;;
75012;SDS011;63567;49.956;20.130;2023-04-25T07:09:07;6.13;;;2.90;;
75012;SDS011;63567;49.956;20.130;2023-04-25T07:11:34;5.03;;;2.95;;
75012;SDS011;63567;49.956;20.130;2023-04-25T07:14:00;6.93;;;3.47;;
75012;SDS011;63567;49.956;20.130;2023-04-25T07:16:26;4.90;;;3.42;;
75012;SDS011;63567;49.956;20.130;2023-04-25T07:18:51;6.70;;;3.40;;
75012;SDS011;63567;49.956;20.130;2023-04-25T07:21:16;6.30;;;3.33;;
75012;SDS011;63567;49.956;20.130;2023-04-25T07:23:42;5.80;;;3.23;;
75012;SDS011;63567;49.956;20.130;2023-04-25T07:26:07;6.50;;;3.63;;
75012;SDS011;63567;49.956;20.130;2023-04-25T07:28:33;6.65;;;3.33;;
75012;SDS011;63567;49.956;20.130;2023-04-25T07:30:58;6.25;;;3.30;;
75012;SDS011;63567;49.956;20.130;2023-04-25T07:33:23;5.28;;;3.10;;
75012;SDS011;63567;49.956;20.130;2023-04-25T07:35:49;5.28;;;3.25;;
75012;SDS011;63567;49.956;20.130;2023-04-25T07:38:15;5.38;;;2.42;;
75012;SDS011;63567;49.956;20.130;2023-04-25T07:40:40;4.55;;;3.08;;
75012;SDS011;63567;49.956;20.130;2023-04-25T07:43:06;4.57;;;2.47;;
75012;SDS011;63567;49.956;20.130;2023-04-25T07:45:31;5.87;;;3.13;;
75012;SDS011;63567;49.956;20.130;2023-04-25T07:47:56;5.23;;;3.13;;
75012;SDS011;63567;49.956;20.130;2023-04-25T07:50:22;5.38;;;3.15;;
75012;SDS011;63567;49.956;20.130;2023-04-25T07:52:47;4.68;;;3.00;;
75012;SDS011;63567;49.956;20.130;2023-04-25T07:55:12;3.83;;;2.80;;
75012;SDS011;63567;49.956;20.130;2023-04-25T07:57:38;4.97;;;3.20;;
75012;SDS011;63567;49.956;20.130;2023-04-25T08:00:04;5.05;;;3.08;;
75012;SDS011;63567;49.956;20.130;2023-04-25T08:02:30;5.53;;;3.30;;
75012;SDS011;63567;49.956;20.130;2023-04-25T08:04:55;8.57;;;3.40;;
75012;SDS011;63567;49.956;20.130;2023-04-25T08:07:21;6.20;;;3.30;;
75012;SDS011;63567;49.956;20.130;2023-04-25T08:09:46;5.23;;;3.00;;
75012;SDS011;63567;49.956;20.130;2023-04-25T08:12:12;5.35;;;3.50;;
75012;SDS011;63567;49.956;20.130;2023-04-25T08:14:37;5.45;;;3.75;;
75012;SDS011;63567;49.956;20.130;2023-04-25T08:17:04;5.90;;;2.90;;
75012;SDS011;63567;49.956;20.130;2023-04-25T08:19:30;6.15;;;3.13;;
75012;SDS011;63567;49.956;20.130;2023-04-25T08:21:55;4.47;;;2.85;;
75012;SDS011;63567;49.956;20.130;2023-04-25T08:24:21;5.07;;;2.90;;
75012;SDS011;63567;49.956;20.130;2023-04-25T08:26:47;4.35;;;2.70;;
75012;SDS011;63567;49.956;20.130;2023-04-25T08:29:13;4.13;;;2.70;;
75012;SDS011;63567;49.956;20.130;2023-04-25T08:31:38;4.17;;;2.50;;
75012;SDS011;63567;49.956;20.130;2023-04-25T08:34:03;4.40;;;2.60;;
75012;SDS011;63567;49.956;20.130;2023-04-25T08:36:29;4.00;;;2.27;;
75012;SDS011;63567;49.956;20.130;2023-04-25T08:38:54;4.38;;;2.10;;
75012;SDS011;63567;49.956;20.130;2023-04-25T08:41:20;4.28;;;2.50;;
75012;SDS011;63567;49.956;20.130;2023-04-25T08:43:47;3.70;;;2.13;;
75012;SDS011;63567;49.956;20.130;2023-04-25T08:46:13;3.85;;;2.53;;
75012;SDS011;63567;49.956;20.130;2023-04-25T08:48:45;3.65;;;2.45;;
75012;SDS011;63567;49.956;20.130;2023-04-25T08:51:15;3.88;;;2.65;;
75012;SDS011;63567;49.956;20.130;2023-04-25T08:53:49;3.20;;;2.53;;
75012;SDS011;63567;49.956;20.130;2023-04-25T08:56:16;4.10;;;2.60;;
75012;SDS011;63567;49.956;20.130;2023-04-25T08:58:50;3.97;;;2.67;;
75012;SDS011;63567;49.956;20.130;2023-04-25T09:01:16;4.35;;;2.70;;
75012;SDS011;63567;49.956;20.130;2023-04-25T09:03:43;4.93;;;2.83;;
75012;SDS011;63567;49.956;20.130;2023-04-25T09:06:10;5.03;;;3.00;;
75012;SDS011;63567;49.956;20.130;2023-04-25T09:08:36;4.95;;;3.10;;
75012;SDS011;63567;49.956;20.130;2023-04-25T09:11:02;4.50;;;3.10;;
75012;SDS011;63567;49.956;20.130;2023-04-25T09:13:28;5.00;;;3.22;;
75012;SDS011;63567;49.956;20.130;2023-04-25T09:15:54;5.40;;;3.25;;
75012;SDS011;63567;49.956;20.130;2023-04-25T09:18:28;4.93;;;3.13;;
75012;SDS011;63567;49.956;20.130;2023-04-25T09:20:56;5.70;;;3.42;;
75012;SDS011;63567;49.956;20.130;2023-04-25T09:23:29;5.32;;;3.50;;
75012;SDS011;63567;49.956;20.130;2023-04-25T09:25:55;5.38;;;3.65;;
75012;SDS011;63567;49.956;20.130;2023-04-25T09:28:23;5.30;;;3.13;;
75012;SDS011;63567;49.956;20.130;2023-04-25T09:30:54;5.60;;;3.63;;
75012;SDS011;63567;49.956;20.130;2023-04-25T09:33:26;6.13;;;3.70;;
75012;SDS011;63567;49.956;20.130;2023-04-25T09:35:54;5.65;;;3.15;;
75012;SDS011;63567;49.956;20.130;2023-04-25T09:38:26;5.03;;;3.38;;
75012;SDS011;63567;49.956;20.130;2023-04-25T09:40:55;5.75;;;3.92;;
75012;SDS011;63567;49.956;20.130;2023-04-25T09:43:21;4.90;;;3.30;;
75012;SDS011;63567;49.956;20.130;2023-04-25T09:45:48;4.93;;;3.10;;
75012;SDS011;63567;49.956;20.130;2023-04-25T09:48:17;5.68;;;3.70;;
75012;SDS011;63567;49.956;20.130;2023-04-25T09:50:44;4.85;;;3.42;;
75012;SDS011;63567;49.956;20.130;2023-04-25T09:53:09;5.65;;;3.58;;
75012;SDS011;63567;49.956;20.130;2023-04-25T09:55:35;5.75;;;3.90;;
75012;SDS011;63567;49.956;20.130;2023-04-25T09:58:03;5.68;;;3.90;;
75012;SDS011;63567;49.956;20.130;2023-04-25T10:00:33;5.97;;;3.85;;
75012;SDS011;63567;49.956;20.130;2023-04-25T10:03:02;6.07;;;3.65;;
75012;SDS011;63567;49.956;20.130;2023-04-25T10:05:29;5.80;;;3.88;;
75012;SDS011;63567;49.956;20.130;2023-04-25T10:07:57;6.40;;;4.22;;
75012;SDS011;63567;49.956;20.130;2023-04-25T10:10:24;5.63;;;3.88;;
75012;SDS011;63567;49.956;20.130;2023-04-25T10:12:52;5.90;;;4.25;;
75012;SDS011;63567;49.956;20.130;2023-04-25T10:15:18;6.07;;;3.80;;
75012;SDS011;63567;49.956;20.130;2023-04-25T10:17:44;6.47;;;3.83;;
75012;SDS011;63567;49.956;20.130;2023-04-25T10:20:10;7.28;;;4.18;;
75012;SDS011;63567;49.956;20.130;2023-04-25T10:22:41;6.53;;;4.30;;
75012;SDS011;63567;49.956;20.130;2023-04-25T10:25:09;6.10;;;4.53;;
75012;SDS011;63567;49.956;20.130;2023-04-25T10:27:36;6.95;;;4.35;;
75012;SDS011;63567;49.956;20.130;2023-04-25T10:30:13;6.85;;;4.70;;
75012;SDS011;63567;49.956;20.130;2023-04-25T10:32:41;7.43;;;4.63;;
75012;SDS011;63567;49.956;20.130;2023-04-25T10:35:14;6.25;;;4.40;;
75012;SDS011;63567;49.956;20.130;2023-04-25T10:40:34;6.85;;;4.80;;
75012;SDS011;63567;49.956;20.130;2023-04-25T10:51:31;6.35;;;5.25;;
75012;SDS011;63567;49.956;20.130;2023-04-25T10:54:05;8.35;;;4.80;;
75012;SDS011;63567;49.956;20.130;2023-04-25T10:59:10;6.53;;;4.30;;
75012;SDS011;63567;49.956;20.130;2023-04-25T11:01:41;7.38;;;4.93;;
75012;SDS011;63567;49.956;20.130;2023-04-25T11:09:27;4.93;;;3.92;;
75012;SDS011;63567;49.956;20.130;2023-04-25T11:11:56;5.78;;;4.05;;
75012;SDS011;63567;49.956;20.130;2023-04-25T11:14:23;5.22;;;3.53;;
75012;SDS011;63567;49.956;20.130;2023-04-25T11:16:55;5.90;;;4.00;;
75012;SDS011;63567;49.956;20.130;2023-04-25T11:19:22;5.05;;;3.63;;
75012;SDS011;63567;49.956;20.130;2023-04-25T11:21:48;5.20;;;3.20;;
75012;SDS011;63567;49.956;20.130;2023-04-25T11:24:14;4.60;;;3.35;;
75012;SDS011;63567;49.956;20.130;2023-04-25T11:26:41;5.55;;;3.60;;
75012;SDS011;63567;49.956;20.130;2023-04-25T11:29:07;5.03;;;3.72;;
75012;SDS011;63567;49.956;20.130;2023-04-25T11:31:33;5.38;;;3.75;;
75012;SDS011;63567;49.956;20.130;2023-04-25T11:33:58;4.97;;;3.80;;
75012;SDS011;63567;49.956;20.130;2023-04-25T11:36:25;5.45;;;3.53;;
75012;SDS011;63567;49.956;20.130;2023-04-25T11:38:51;4.85;;;3.58;;
75012;SDS011;63567;49.956;20.130;2023-04-25T11:41:17;4.95;;;3.65;;
75012;SDS011;63567;49.956;20.130;2023-04-25T11:43:43;5.40;;;3.47;;
75012;SDS011;63567;49.956;20.130;2023-04-25T11:46:13;5.85;;;3.58;;
75012;SDS011;63567;49.956;20.130;2023-04-25T11:48:40;4.93;;;3.55;;
75012;SDS011;63567;49.956;20.130;2023-04-25T11:51:06;5.28;;;3.75;;
75012;SDS011;63567;49.956;20.130;2023-04-25T11:53:32;5.13;;;3.50;;
75012;SDS011;63567;49.956;20.130;2023-04-25T11:55:57;4.97;;;3.60;;
75012;SDS011;63567;49.956;20.130;2023-04-25T11:58:22;5.72;;;3.60;;
75012;SDS011;63567;49.956;20.130;2023-04-25T12:00:48;5.05;;;3.13;;
75012;SDS011;63567;49.956;20.130;2023-04-25T12:03:13;5.85;;;3.40;;
75012;SDS011;63567;49.956;20.130;2023-04-25T12:05:39;6.43;;;4.00;;
75012;SDS011;63567;49.956;20.130;2023-04-25T12:08:14;6.25;;;4.03;;
75012;SDS011;63567;49.956;20.130;2023-04-25T12:10:41;6.18;;;4.10;;
75012;SDS011;63567;49.956;20.130;2023-04-25T12:13:19;6.80;;;4.50;;
75012;SDS011;63567;49.956;20.130;2023-04-25T12:15:49;6.22;;;4.20;;
75012;SDS011;63567;49.956;20.130;2023-04-25T12:18:14;6.05;;;4.35;;
75012;SDS011;63567;49.956;20.130;2023-04-25T12:20:41;6.03;;;4.10;;
75012;SDS011;63567;49.956;20.130;2023-04-25T12:23:06;5.75;;;4.13;;
75012;SDS011;63567;49.956;20.130;2023-04-25T12:25:40;5.57;;;4.43;;
75012;SDS011;63567;49.956;20.130;2023-04-25T12:30:52;5.88;;;3.90;;
75012;SDS011;63567;49.956;20.130;2023-04-25T12:33:25;5.63;;;4.10;;
75012;SDS011;63567;49.956;20.130;2023-04-25T12:35:55;6.47;;;4.32;;
75012;SDS011;63567;49.956;20.130;2023-04-25T12:40:54;3.90;;;3.05;;
75012;SDS011;63567;49.956;20.130;2023-04-25T12:43:20;4.65;;;3.10;;
75012;SDS011;63567;49.956;20.130;2023-04-25T12:45:49;3.70;;;3.10;;
75012;SDS011;63567;49.956;20.130;2023-04-25T12:48:18;4.90;;;3.78;;
75012;SDS011;63567;49.956;20.130;2023-04-25T12:50:45;6.53;;;4.25;;
75012;SDS011;63567;49.956;20.130;2023-04-25T12:53:14;6.57;;;4.70;;
75012;SDS011;63567;49.956;20.130;2023-04-25T12:55:40;6.00;;;4.25;;
75012;SDS011;63567;49.956;20.130;2023-04-25T12:58:05;6.53;;;4.15;;
75012;SDS011;63567;49.956;20.130;2023-04-25T13:00:30;6.10;;;3.97;;
75012;SDS011;63567;49.956;20.130;2023-04-25T13:02:56;5.15;;;3.97;;
75012;SDS011;63567;49.956;20.130;2023-04-25T13:05:22;5.75;;;3.35;;
75012;SDS011;63567;49.956;20.130;2023-04-25T13:07:47;3.88;;;3.00;;
75012;SDS011;63567;49.956;20.130;2023-04-25T13:10:13;3.87;;;2.60;;
75012;SDS011;63567;49.956;20.130;2023-04-25T13:12:38;4.22;;;3.13;;
75012;SDS011;63567;49.956;20.130;2023-04-25T13:15:04;5.03;;;3.70;;
75012;SDS011;63567;49.956;20.130;2023-04-25T13:17:30;6.82;;;3.70;;
75012;SDS011;63567;49.956;20.130;2023-04-25T13:19:55;5.90;;;4.45;;
75012;SDS011;63567;49.956;20.130;2023-04-25T13:22:20;6.20;;;4.17;;
75012;SDS011;63567;49.956;20.130;2023-04-25T13:24:46;7.32;;;4.18;;
75012;SDS011;63567;49.956;20.130;2023-04-25T13:27:11;5.60;;;3.67;;
75012;SDS011;63567;49.956;20.130;2023-04-25T13:29:38;4.97;;;3.60;;
75012;SDS011;63567;49.956;20.130;2023-04-25T13:32:05;5.78;;;3.92;;
75012;SDS011;63567;49.956;20.130;2023-04-25T13:34:31;6.53;;;3.67;;
75012;SDS011;63567;49.956;20.130;2023-04-25T13:36:57;5.45;;;3.58;;
75012;SDS011;63567;49.956;20.130;2023-04-25T13:39:22;4.80;;;3.83;;
75012;SDS011;63567;49.956;20.130;2023-04-25T13:41:47;4.90;;;3.85;;
75012;SDS011;63567;49.956;20.130;2023-04-25T13:44:13;6.05;;;3.83;;
75012;SDS011;63567;49.956;20.130;2023-04-25T13:46:38;5.03;;;4.18;;
75012;SDS011;63567;49.956;20.130;2023-04-25T13:49:04;5.80;;;3.83;;
75012;SDS011;63567;49.956;20.130;2023-04-25T13:51:29;6.05;;;3.60;;
75012;SDS011;63567;49.956;20.130;2023-04-25T13:53:55;6.45;;;3.88;;
75012;SDS011;63567;49.956;20.130;2023-04-25T13:56:21;5.53;;;3.83;;
75012;SDS011;63567;49.956;20.130;2023-04-25T13:58:48;5.93;;;4.47;;
75012;SDS011;63567;49.956;20.130;2023-04-25T14:01:13;7.40;;;4.53;;
75012;SDS011;63567;49.956;20.130;2023-04-25T14:03:39;5.85;;;4.35;;
75012;SDS011;63567;49.956;20.130;2023-04-25T14:06:04;6.07;;;4.22;;
75012;SDS011;63567;49.956;20.130;2023-04-25T14:08:30;7.95;;;4.93;;
75012;SDS011;63567;49.956;20.130;2023-04-25T14:10:56;8.65;;;4.30;;
75012;SDS011;63567;49.956;20.130;2023-04-25T14:13:21;6.13;;;4.40;;
75012;SDS011;63567;49.956;20.130;2023-04-25T14:15:48;7.03;;;4.60;;
75012;SDS011;63567;49.956;20.130;2023-04-25T14:18:15;6.57;;;4.97;;
75012;SDS011;63567;49.956;20.130;2023-04-25T14:20:40;7.27;;;4.50;;
75012;SDS011;63567;49.956;20.130;2023-04-25T14:23:07;6.10;;;4.57;;
75012;SDS011;63567;49.956;20.130;2023-04-25T14:25:32;6.67;;;4.60;;
75012;SDS011;63567;49.956;20.130;2023-04-25T14:27:58;6.60;;;4.50;;
75012;SDS011;63567;49.956;20.130;2023-04-25T14:30:23;6.60;;;4.20;;
75012;SDS011;63567;49.956;20.130;2023-04-25T14:32:49;7.33;;;4.30;;
75012;SDS011;63567;49.956;20.130;2023-04-25T14:35:14;5.93;;;4.18;;
75012;SDS011;63567;49.956;20.130;2023-04-25T14:37:40;4.80;;;3.83;;
75012;SDS011;63567;49.956;20.130;2023-04-25T14:40:06;8.35;;;4.57;;
75012;SDS011;63567;49.956;20.130;2023-04-25T14:42:35;7.32;;;4.22;;
75012;SDS011;63567;49.956;20.130;2023-04-25T14:45:01;6.65;;;4.07;;
75012;SDS011;63567;49.956;20.130;2023-04-25T14:47:27;6.75;;;4.18;;
75012;SDS011;63567;49.956;20.130;2023-04-25T14:49:53;7.93;;;5.13;;
75012;SDS011;63567;49.956;20.130;2023-04-25T14:52:19;7.10;;;4.80;;